createdAt,value
2023-07-24T00:01:26.903Z,97470.19
2023-07-24T00:03:30.183Z,97495.06
2023-07-24T00:05:33.238Z,97542.72
2023-07-24T00:07:36.297Z,97570.38
2023-07-24T00:09:39.391Z,97604.44
2023-07-24T00:11:42.428Z,97574.50
2023-07-24T00:13:45.459Z,97517.41
2023-07-24T00:15:49.978Z,97492.63
2023-07-24T00:17:53.142Z,97497.63
2023-07-24T00:19:55.282Z,97524.19
2023-07-24T00:21:58.393Z,97507.97
2023-07-24T00:24:01.524Z,97491.41
2023-07-24T00:26:04.566Z,97483.47
2023-07-24T00:28:07.716Z,97472.25
2023-07-24T00:30:12.461Z,97477.19
2023-07-24T00:32:16.957Z,97496.06
2023-07-24T00:34:20.057Z,97499.72
2023-07-24T00:36:23.198Z,97499.53
2023-07-24T00:38:26.413Z,97472.06
2023-07-24T00:40:29.453Z,97470.25
2023-07-24T00:42:32.449Z,97467.78
2023-07-24T00:44:35.541Z,97462.66
2023-07-24T00:46:39.289Z,97451.25
2023-07-24T00:48:43.886Z,97463.69
2023-07-24T00:50:46.813Z,97474.44
2023-07-24T00:52:49.966Z,97461.38
2023-07-24T00:54:53.986Z,97452.78
2023-07-24T00:56:57.134Z,97450.13
2023-07-24T00:59:00.270Z,97443.84
2023-07-24T01:01:03.522Z,97450.13
2023-07-24T01:03:06.788Z,97450.47
2023-07-24T01:05:13.542Z,97450.66
2023-07-24T01:07:17.707Z,97438.63
2023-07-24T01:09:20.838Z,97437.78
2023-07-24T01:11:28.701Z,97433.53
2023-07-24T01:13:35.256Z,97427.66
2023-07-24T01:15:41.616Z,97428.81
2023-07-24T01:17:49.480Z,97426.19
2023-07-24T01:19:57.127Z,97412.03
2023-07-24T01:22:06.479Z,97409.72
2023-07-24T01:24:17.335Z,97405.59
2023-07-24T01:26:24.998Z,97403.59
2023-07-24T01:28:28.526Z,97404.63
2023-07-24T01:30:31.669Z,97398.66
2023-07-24T01:32:34.757Z,97401.31
2023-07-24T01:34:37.867Z,97396.84
2023-07-24T01:36:41.338Z,97398.84
2023-07-24T01:38:44.518Z,97405.13
2023-07-24T01:40:48.026Z,97407.97
2023-07-24T01:42:53.170Z,97397.72
2023-07-24T01:44:56.285Z,97400.91
2023-07-24T01:46:59.343Z,97399.25
2023-07-24T01:49:02.445Z,97397.75
2023-07-24T01:51:05.607Z,97402.56
2023-07-24T01:53:07.736Z,97407.41
2023-07-24T01:55:11.218Z,97416.31
2023-07-24T01:57:14.278Z,97415.03
2023-07-24T01:59:18.758Z,97404.63
2023-07-24T02:01:21.910Z,97417.00
2023-07-24T02:03:25.175Z,97423.28
2023-07-24T02:05:28.817Z,97417.84
2023-07-24T02:07:32.522Z,97419.78
2023-07-24T02:09:35.622Z,97419.97
2023-07-24T02:11:38.682Z,97410.22
2023-07-24T02:13:41.797Z,97409.06
2023-07-24T02:15:46.298Z,97411.72
2023-07-24T02:17:49.430Z,97408.22
2023-07-24T02:19:55.572Z,97411.38
2023-07-24T02:21:58.703Z,97410.91
2023-07-24T02:24:01.102Z,97410.91
2023-07-24T02:26:04.176Z,97403.81
2023-07-24T02:28:06.342Z,97404.78
2023-07-24T02:30:10.374Z,97415.53
2023-07-24T02:32:14.899Z,97411.25
2023-07-24T02:34:19.187Z,97409.44
2023-07-24T02:36:22.311Z,97418.19
2023-07-24T02:38:25.653Z,97410.41
2023-07-24T02:40:28.693Z,97418.53
2023-07-24T02:42:31.723Z,97409.94
2023-07-24T02:44:36.111Z,97411.59
2023-07-24T02:46:39.226Z,97404.66
2023-07-24T02:48:43.852Z,97417.88
2023-07-24T02:50:46.984Z,97418.88
2023-07-24T02:52:50.056Z,97400.38
2023-07-24T02:54:53.200Z,97395.94
2023-07-24T02:56:56.284Z,97395.06
2023-07-24T02:58:59.447Z,97390.81
2023-07-24T03:01:07.521Z,97386.34
2023-07-24T03:03:10.742Z,97381.22
2023-07-24T03:05:14.312Z,97378.28
2023-07-24T03:07:17.395Z,97364.91
2023-07-24T03:09:20.464Z,97366.09
2023-07-24T03:11:23.502Z,97375.00
2023-07-24T03:13:25.528Z,97367.25
2023-07-24T03:15:28.726Z,97364.44
2023-07-24T03:17:32.051Z,97363.63
2023-07-24T03:19:35.138Z,97349.44
2023-07-24T03:21:39.915Z,97353.88
2023-07-24T03:23:42.980Z,97361.63
2023-07-24T03:25:46.146Z,97353.88
2023-07-24T03:27:49.377Z,97348.94
2023-07-24T03:29:52.430Z,97347.13
2023-07-24T03:31:55.757Z,97338.53
2023-07-24T03:33:58.849Z,97335.09
2023-07-24T03:36:02.032Z,97329.00
2023-07-24T03:38:06.760Z,97333.25
2023-07-24T03:40:10.571Z,97328.13
2023-07-24T03:42:14.240Z,97337.91
2023-07-24T03:44:17.319Z,97344.00
2023-07-24T03:46:20.429Z,97341.34
2023-07-24T03:48:22.609Z,97344.00
2023-07-24T03:50:25.873Z,97353.91
2023-07-24T03:52:28.971Z,97351.91
2023-07-24T03:54:33.379Z,97357.19
2023-07-24T03:56:36.404Z,97352.75
2023-07-24T03:58:40.504Z,97358.69
2023-07-24T04:00:43.639Z,97355.06
2023-07-24T04:02:46.887Z,97357.53
2023-07-24T04:04:50.064Z,97360.66
2023-07-24T04:06:53.148Z,97361.47
2023-07-24T04:08:56.217Z,97355.19
2023-07-24T04:11:00.707Z,97362.47
2023-07-24T04:13:03.768Z,97363.13
2023-07-24T04:15:08.013Z,97359.28
2023-07-24T04:17:11.812Z,97358.13
2023-07-24T04:19:15.173Z,97353.31
2023-07-24T04:21:18.270Z,97360.72
2023-07-24T04:23:21.356Z,97356.44
2023-07-24T04:25:24.828Z,97346.53
2023-07-24T04:27:29.506Z,97347.16
2023-07-24T04:29:32.576Z,97352.94
2023-07-24T04:31:35.726Z,97355.25
2023-07-24T04:33:38.795Z,97344.31
2023-07-24T04:35:41.828Z,97339.50
2023-07-24T04:37:44.988Z,97339.19
2023-07-24T04:39:47.231Z,97331.88
2023-07-24T04:41:50.258Z,97329.91
2023-07-24T04:43:54.663Z,97324.25
2023-07-24T04:45:57.753Z,97321.91
2023-07-24T04:47:59.923Z,97324.84
2023-07-24T04:50:03.067Z,97318.22
2023-07-24T04:52:06.859Z,97314.88
2023-07-24T04:54:10.182Z,97311.50
2023-07-24T04:56:13.263Z,97318.75
2023-07-24T04:58:16.528Z,97313.72
2023-07-24T05:00:21.204Z,97314.81
2023-07-24T05:02:24.366Z,97320.59
2023-07-24T05:04:27.521Z,97332.44
2023-07-24T05:06:30.856Z,97328.81
2023-07-24T05:08:34.101Z,97321.88
2023-07-24T05:10:37.478Z,97317.25
2023-07-24T05:12:43.662Z,97318.06
2023-07-24T05:14:46.751Z,97310.91
2023-07-24T05:16:51.287Z,97307.47
2023-07-24T05:18:54.488Z,97314.59
2023-07-24T05:20:57.641Z,97309.75
2023-07-24T05:23:00.727Z,97306.38
2023-07-24T05:25:03.858Z,97312.63
2023-07-24T05:27:07.220Z,97308.94
2023-07-24T05:29:10.335Z,97311.31
2023-07-24T05:31:13.500Z,97312.38
2023-07-24T05:33:16.902Z,97324.53
2023-07-24T05:35:20.015Z,97327.28
2023-07-24T05:37:23.020Z,97330.84
2023-07-24T05:39:26.146Z,97313.59
2023-07-24T05:41:29.250Z,97309.28
2023-07-24T05:43:33.438Z,97311.50
2023-07-24T05:45:35.544Z,97321.72
2023-07-24T05:47:38.615Z,97344.75
2023-07-24T05:49:43.062Z,97352.69
2023-07-24T05:51:46.092Z,97348.56
2023-07-24T05:53:49.150Z,97354.06
2023-07-24T05:56:00.148Z,97351.22
2023-07-24T05:58:03.272Z,97358.00
2023-07-24T06:00:07.689Z,97359.63
2023-07-24T06:02:19.111Z,97364.09
2023-07-24T06:04:22.267Z,97377.34
2023-07-24T06:06:26.868Z,97379.38
2023-07-24T06:08:30.055Z,97379.53
2023-07-24T06:10:33.139Z,97385.47
2023-07-24T06:12:36.310Z,97384.47
2023-07-24T06:14:39.338Z,97379.19
2023-07-24T06:16:42.507Z,97384.47
2023-07-24T06:18:45.671Z,97389.13
2023-07-24T06:20:51.208Z,97401.56
2023-07-24T06:22:55.764Z,97388.75
2023-07-24T06:24:58.899Z,97396.34
2023-07-24T06:27:02.088Z,97391.50
2023-07-24T06:29:05.168Z,97387.03
2023-07-24T06:31:08.333Z,97375.59
2023-07-24T06:33:11.445Z,97375.41
2023-07-24T06:35:14.560Z,97379.72
2023-07-24T06:37:22.675Z,97365.47
2023-07-24T06:39:29.719Z,97358.16
2023-07-24T06:41:32.942Z,97349.22
2023-07-24T06:43:36.079Z,97355.78
2023-07-24T06:45:38.844Z,97349.28
2023-07-24T06:47:42.038Z,97341.78
2023-07-24T06:49:45.168Z,97345.38
2023-07-24T06:51:48.253Z,97355.84
2023-07-24T06:53:51.357Z,97342.72
2023-07-24T06:55:55.797Z,97338.50
2023-07-24T06:57:58.964Z,97337.75
2023-07-24T07:00:02.057Z,97337.41
2023-07-24T07:02:06.048Z,97339.69
2023-07-24T07:04:09.136Z,97335.66
2023-07-24T07:06:28.219Z,97336.91
2023-07-24T07:08:36.142Z,97329.50
2023-07-24T07:10:39.254Z,97340.41
2023-07-24T07:12:43.983Z,97337.63
2023-07-24T07:14:47.103Z,97341.16
2023-07-24T07:16:50.197Z,97341.44
2023-07-24T07:18:53.281Z,97339.84
2023-07-24T07:20:55.358Z,97341.31
2023-07-24T07:22:58.430Z,97337.84
2023-07-24T07:25:01.521Z,97335.56
2023-07-24T07:27:03.900Z,97345.13
2023-07-24T07:29:08.324Z,97347.41
2023-07-24T07:31:11.459Z,97356.84
2023-07-24T07:33:14.553Z,97353.00
2023-07-24T07:35:18.033Z,97358.38
2023-07-24T07:37:21.137Z,97362.09
2023-07-24T07:39:24.344Z,97363.53
2023-07-24T07:41:27.478Z,97364.00
2023-07-24T07:43:30.596Z,97370.16
2023-07-24T07:45:35.424Z,97370.41
2023-07-24T07:47:38.600Z,97376.41
2023-07-24T07:49:41.393Z,97387.81
2023-07-24T07:51:44.492Z,97388.09
2023-07-24T07:53:47.570Z,97402.88
2023-07-24T07:55:57.986Z,97397.22
2023-07-24T07:58:01.078Z,97388.28
2023-07-24T08:00:04.586Z,97402.66
2023-07-24T08:02:10.771Z,97404.78
2023-07-24T08:04:13.873Z,97406.38
2023-07-24T08:06:16.955Z,97400.47
2023-07-24T08:08:20.043Z,97408.63
2023-07-24T08:10:23.218Z,97411.44
2023-07-24T08:12:26.972Z,97410.63
2023-07-24T08:14:30.402Z,97417.97
2023-07-24T08:16:33.901Z,97426.34
2023-07-24T08:18:38.832Z,97432.66
2023-07-24T08:20:42.165Z,97442.66
2023-07-24T08:22:45.263Z,97438.97
2023-07-24T08:24:51.509Z,97454.53
2023-07-24T08:26:54.789Z,97450.88
2023-07-24T08:28:57.843Z,97441.63
2023-07-24T08:31:05.602Z,97440.00
2023-07-24T08:33:10.299Z,97440.38
2023-07-24T08:35:14.791Z,97429.94
2023-07-24T08:37:17.844Z,97420.28
2023-07-24T08:39:20.972Z,97418.38
2023-07-24T08:41:24.087Z,97416.31
2023-07-24T08:43:27.296Z,97423.25
2023-07-24T08:45:30.438Z,97411.59
2023-07-24T08:47:33.855Z,97397.53
2023-07-24T08:49:37.164Z,97390.56
2023-07-24T08:51:41.928Z,97367.22
2023-07-24T08:53:45.784Z,97372.50
2023-07-24T08:55:51.019Z,97383.91
2023-07-24T08:57:54.123Z,97364.31
2023-07-24T08:59:57.346Z,97349.44
2023-07-24T09:02:00.596Z,97356.25
2023-07-24T09:04:03.909Z,97348.97
2023-07-24T09:06:08.756Z,97351.06
2023-07-24T09:08:13.277Z,97338.38
2023-07-24T09:10:16.588Z,97335.34
2023-07-24T09:12:19.641Z,97327.00
2023-07-24T09:14:24.107Z,97318.63
2023-07-24T09:16:28.403Z,97318.69
2023-07-24T09:18:41.572Z,97330.41
2023-07-24T09:20:45.491Z,97335.00
2023-07-24T09:23:10.560Z,97344.47
2023-07-24T09:25:15.413Z,97337.16
2023-07-24T09:27:18.652Z,97338.88
2023-07-24T09:29:21.844Z,97336.47
2023-07-24T09:31:36.813Z,97338.41
2023-07-24T09:33:41.254Z,97336.19
2023-07-24T09:35:44.367Z,97344.66
2023-07-24T09:37:48.131Z,97343.84
2023-07-24T09:39:51.258Z,97354.88
2023-07-24T09:41:56.000Z,97360.63
2023-07-24T09:44:00.753Z,97361.03
2023-07-24T09:46:06.452Z,97355.47
2023-07-24T09:48:38.848Z,97351.22
2023-07-24T09:50:35.358Z,97347.06
2023-07-24T09:52:39.498Z,97360.19
2023-07-24T09:54:47.337Z,97356.25
2023-07-24T09:56:57.952Z,97351.50
2023-07-24T09:59:11.845Z,97357.06
2023-07-24T10:01:15.055Z,97366.91
2023-07-24T10:03:18.195Z,97370.66
2023-07-24T10:05:21.346Z,97364.72
2023-07-24T10:07:24.846Z,97378.66
2023-07-24T10:09:30.541Z,97381.38
2023-07-24T10:11:34.296Z,97383.81
2023-07-24T10:13:37.907Z,97380.31
2023-07-24T10:15:42.828Z,97379.44
2023-07-24T10:17:45.985Z,97376.97
2023-07-24T10:19:49.134Z,97380.84
2023-07-24T10:21:53.799Z,97383.84
2023-07-24T10:23:56.950Z,97389.16
2023-07-24T10:26:05.649Z,97399.13
2023-07-24T10:28:11.997Z,97397.81
2023-07-24T10:30:32.102Z,97401.84
2023-07-24T10:32:50.949Z,97410.03
2023-07-24T10:35:00.169Z,97416.34
2023-07-24T10:37:04.966Z,97421.25
2023-07-24T10:39:15.954Z,97412.41
2023-07-24T10:41:19.053Z,97411.59
2023-07-24T10:43:22.872Z,97418.09
2023-07-24T10:45:26.205Z,97415.22
2023-07-24T10:47:29.301Z,97407.25
2023-07-24T10:49:33.735Z,97410.28
2023-07-24T10:51:38.700Z,97403.34
2023-07-24T10:53:46.169Z,97417.06
2023-07-24T10:55:51.489Z,97429.97
2023-07-24T10:57:55.511Z,97434.06
2023-07-24T10:59:58.822Z,97425.28
2023-07-24T11:02:04.162Z,97433.25
2023-07-24T11:04:07.974Z,97429.56
2023-07-24T11:06:17.001Z,97427.28
2023-07-24T11:08:21.775Z,97440.13
2023-07-24T11:10:25.584Z,97430.72
2023-07-24T11:12:31.996Z,97440.31
2023-07-24T11:14:35.045Z,97435.59
2023-07-24T11:16:38.445Z,97443.75
2023-07-24T11:18:54.637Z,97435.53
2023-07-24T11:20:58.622Z,97431.63
2023-07-24T11:25:07.521Z,97410.69
2023-07-24T11:27:12.585Z,97393.28
2023-07-24T11:29:15.875Z,97382.22
2023-07-24T11:31:20.952Z,97370.34
2023-07-24T11:33:24.753Z,97369.06
2023-07-24T11:35:28.182Z,97340.44
2023-07-24T11:37:31.526Z,97319.94
2023-07-24T11:39:35.984Z,97330.56
2023-07-24T11:41:39.309Z,97322.00
2023-07-24T11:43:48.097Z,97316.69
2023-07-24T11:45:53.244Z,97303.59
2023-07-24T11:47:57.362Z,97297.44
2023-07-24T11:50:01.616Z,97283.75
2023-07-24T11:52:06.991Z,97256.97
2023-07-24T11:54:12.675Z,97269.47
2023-07-24T11:56:19.052Z,97279.81
2023-07-24T11:58:22.809Z,97297.72
2023-07-24T12:00:25.067Z,97309.31
2023-07-24T12:02:29.218Z,97324.53
2023-07-24T12:04:33.088Z,97311.53
2023-07-24T12:06:36.213Z,97311.38
2023-07-24T12:08:39.874Z,97327.34
2023-07-24T12:10:43.385Z,97319.97
2023-07-24T12:12:48.820Z,97318.56
2023-07-24T12:14:53.143Z,97331.25
2023-07-24T12:17:03.048Z,97330.00
2023-07-24T12:19:07.079Z,97328.38
2023-07-24T12:21:09.496Z,97323.22
2023-07-24T12:23:12.643Z,97310.72
2023-07-24T12:25:16.504Z,97312.78
2023-07-24T12:27:19.666Z,97302.72
2023-07-24T12:29:24.181Z,97309.81
2023-07-24T12:31:27.702Z,97314.84
2023-07-24T12:33:30.897Z,97322.31
2023-07-24T12:35:34.009Z,97324.50
2023-07-24T12:37:37.262Z,97328.63
2023-07-24T12:39:40.378Z,97344.00
2023-07-24T12:41:43.385Z,97340.25
2023-07-24T12:43:46.823Z,97353.72
2023-07-24T12:45:51.320Z,97346.09
2023-07-24T12:47:56.447Z,97352.16
2023-07-24T12:50:00.478Z,97338.47
2023-07-24T12:52:04.317Z,97341.31
2023-07-24T12:54:39.579Z,97334.69
2023-07-24T12:56:30.530Z,97324.78
2023-07-24T12:58:33.665Z,97323.81
2023-07-24T13:00:36.875Z,97322.41
2023-07-24T13:02:41.381Z,97320.38
2023-07-24T13:04:44.989Z,97315.31
2023-07-24T13:06:48.216Z,97293.66
2023-07-24T13:08:51.410Z,97287.78
2023-07-24T13:10:54.587Z,97292.31
2023-07-24T13:12:57.934Z,97283.16
2023-07-24T13:15:00.979Z,97271.53
2023-07-24T13:17:04.257Z,97266.28
2023-07-24T13:19:08.842Z,97260.97
2023-07-24T13:21:11.872Z,97280.66
2023-07-24T13:23:16.256Z,97271.84
2023-07-24T13:25:20.553Z,97282.53
2023-07-24T13:27:23.597Z,97281.09
2023-07-24T13:29:26.933Z,97286.22
2023-07-24T13:31:30.822Z,97275.97
2023-07-24T13:33:34.042Z,97278.41
2023-07-24T13:35:38.581Z,97274.75
2023-07-24T13:37:41.666Z,97269.63
2023-07-24T13:39:44.795Z,97263.47
2023-07-24T13:41:47.883Z,97256.53
2023-07-24T13:43:51.075Z,97247.72
2023-07-24T13:45:54.356Z,97249.97
2023-07-24T13:47:59.269Z,97237.72
2023-07-24T13:50:04.572Z,97234.88
2023-07-24T13:52:09.399Z,97240.78
2023-07-24T13:54:12.697Z,97232.00
2023-07-24T13:56:16.184Z,97219.31
2023-07-24T13:58:19.466Z,97210.72
2023-07-24T14:00:22.635Z,97217.72
2023-07-24T14:02:28.484Z,97227.13
2023-07-24T14:04:34.598Z,97205.88
2023-07-24T14:06:37.738Z,97201.59
2023-07-24T14:08:42.241Z,97190.75
2023-07-24T14:10:45.355Z,97182.34
2023-07-24T14:12:48.664Z,97180.91
2023-07-24T14:14:51.782Z,97174.38
2023-07-24T14:16:54.994Z,97179.69
2023-07-24T14:18:58.166Z,97182.72
2023-07-24T14:21:01.285Z,97178.00
2023-07-24T14:23:04.397Z,97168.97
2023-07-24T14:25:10.025Z,97163.59
2023-07-24T14:27:13.153Z,97162.38
2023-07-24T14:29:18.322Z,97163.19
2023-07-24T14:31:21.808Z,97170.16
2023-07-24T14:33:24.902Z,97170.97
2023-07-24T14:35:28.150Z,97160.53
2023-07-24T14:37:32.067Z,97159.28
2023-07-24T14:39:35.411Z,97140.81
2023-07-24T14:41:40.104Z,97142.66
2023-07-24T14:43:43.227Z,97137.72
2023-07-24T14:45:46.392Z,97140.00
2023-07-24T14:47:49.919Z,97138.97
2023-07-24T14:49:53.110Z,97130.19
2023-07-24T14:51:56.258Z,97130.81
2023-07-24T14:53:59.461Z,97130.38
2023-07-24T14:56:02.573Z,97122.56
2023-07-24T14:58:07.094Z,97126.88
2023-07-24T15:00:11.036Z,97123.75
2023-07-24T15:02:14.213Z,97120.28
2023-07-24T15:04:17.351Z,97118.88
2023-07-24T15:06:20.432Z,97114.31
2023-07-24T15:08:23.535Z,97114.28
2023-07-24T15:10:26.729Z,97110.94
2023-07-24T15:12:29.936Z,97110.13
2023-07-24T15:14:34.391Z,97121.34
2023-07-24T15:16:37.516Z,97119.47
2023-07-24T15:18:40.653Z,97121.31
2023-07-24T15:20:43.769Z,97115.97
2023-07-24T15:22:46.890Z,97126.84
2023-07-24T15:24:49.969Z,97132.59
2023-07-24T15:26:53.181Z,97144.50
2023-07-24T15:28:56.302Z,97132.66
2023-07-24T15:31:00.853Z,97129.41
2023-07-24T15:33:04.051Z,97125.31
2023-07-24T15:35:08.047Z,97130.03
2023-07-24T15:37:11.611Z,97132.88
2023-07-24T15:39:13.772Z,97140.81
2023-07-24T15:41:16.868Z,97138.94
2023-07-24T15:43:19.971Z,97149.63
2023-07-24T15:45:23.135Z,97143.13
2023-07-24T15:47:27.977Z,97138.50
2023-07-24T15:49:31.119Z,97139.16
2023-07-24T15:51:34.588Z,97146.81
2023-07-24T15:53:37.914Z,97134.72
2023-07-24T15:55:41.042Z,97141.91
2023-07-24T15:57:44.178Z,97133.28
2023-07-24T15:59:47.256Z,97136.56
2023-07-24T16:01:51.773Z,97139.66
2023-07-24T16:03:56.253Z,97142.97
2023-07-24T16:05:58.384Z,97137.66
2023-07-24T16:08:01.877Z,97120.66
2023-07-24T16:10:05.843Z,97108.38
2023-07-24T16:12:09.155Z,97113.88
2023-07-24T16:14:11.215Z,97116.13
2023-07-24T16:16:15.594Z,97110.63
2023-07-24T16:18:18.174Z,97114.94
2023-07-24T16:20:23.237Z,97104.09
2023-07-24T16:22:26.360Z,97097.09
2023-07-24T16:24:29.462Z,97113.69
2023-07-24T16:26:31.930Z,97113.69
2023-07-24T16:28:35.334Z,97121.53
2023-07-24T16:30:38.537Z,97125.63
2023-07-24T16:32:49.210Z,97120.31
2023-07-24T16:34:53.628Z,97123.41
2023-07-24T16:36:58.016Z,97110.72
2023-07-24T16:39:01.160Z,97108.88
2023-07-24T16:41:04.740Z,97121.97
2023-07-24T16:43:07.896Z,97138.16
2023-07-24T16:45:11.202Z,97122.41
2023-07-24T16:47:31.847Z,97124.00
2023-07-24T16:49:34.983Z,97133.19
2023-07-24T16:51:38.092Z,97141.38
2023-07-24T16:53:42.529Z,97155.88
2023-07-24T16:55:45.771Z,97177.38
2023-07-24T16:57:49.013Z,97157.50
2023-07-24T16:59:53.127Z,97163.59
2023-07-24T17:01:56.919Z,97174.44
2023-07-24T17:04:00.070Z,97177.03
2023-07-24T17:06:03.277Z,97166.00
2023-07-24T17:08:06.637Z,97166.00
2023-07-24T17:10:12.798Z,97189.72
2023-07-24T17:12:15.978Z,97192.59
2023-07-24T17:14:19.083Z,97202.22
2023-07-24T17:16:22.395Z,97197.97
2023-07-24T17:18:26.073Z,97201.28
2023-07-24T17:20:29.234Z,97195.38
2023-07-24T17:22:32.463Z,97201.72
2023-07-24T17:24:34.630Z,97205.41
2023-07-24T17:26:39.738Z,97220.97
2023-07-24T17:28:44.063Z,97225.47
2023-07-24T17:30:47.218Z,97233.41
2023-07-24T17:32:50.411Z,97222.16
2023-07-24T17:34:53.594Z,97220.91
2023-07-24T17:36:57.234Z,97223.97
2023-07-24T17:39:02.069Z,97216.19
2023-07-24T17:41:05.318Z,97221.28
2023-07-24T17:43:09.854Z,97219.22
2023-07-24T17:45:15.851Z,97211.84
2023-07-24T17:47:18.954Z,97218.78
2023-07-24T17:49:22.158Z,97216.31
2023-07-24T17:51:25.391Z,97214.91
2023-07-24T17:53:28.550Z,97222.88
2023-07-24T17:55:31.626Z,97220.00
2023-07-24T17:57:35.031Z,97213.06
2023-07-24T17:59:39.726Z,97210.00
2023-07-24T18:01:42.894Z,97215.13
2023-07-24T18:03:46.035Z,97220.03
2023-07-24T18:05:49.238Z,97209.41
2023-07-24T18:07:53.400Z,97209.41
2023-07-24T18:09:56.774Z,97214.13
2023-07-24T18:12:00.486Z,97210.66
2023-07-24T18:14:03.615Z,97205.28
2023-07-24T18:16:08.790Z,97203.88
2023-07-24T18:18:12.149Z,97213.44
2023-07-24T18:20:15.581Z,97208.09
2023-07-24T18:22:20.390Z,97216.63
2023-07-24T18:24:24.637Z,97222.91
2023-07-24T18:26:28.060Z,97227.78
2023-07-24T18:28:31.186Z,97221.63
2023-07-24T18:30:34.341Z,97220.94
2023-07-24T18:32:39.042Z,97221.72
2023-07-24T18:34:42.314Z,97219.25
2023-07-24T18:36:45.399Z,97227.38
2023-07-24T18:38:48.644Z,97233.88
2023-07-24T18:40:51.969Z,97230.53
2023-07-24T18:42:55.128Z,97234.72
2023-07-24T18:44:58.309Z,97234.25
2023-07-24T18:47:01.501Z,97237.50
2023-07-24T18:49:09.227Z,97243.38
2023-07-24T18:51:12.438Z,97249.91
2023-07-24T18:53:15.615Z,97242.94
2023-07-24T18:55:17.943Z,97243.69
2023-07-24T18:57:21.861Z,97242.88
2023-07-24T18:59:25.111Z,97253.50
2023-07-24T19:01:28.728Z,97252.84
2023-07-24T19:03:32.314Z,97260.81
2023-07-24T19:05:37.409Z,97264.03
2023-07-24T19:07:40.701Z,97266.06
2023-07-24T19:09:43.865Z,97258.09
2023-07-24T19:11:47.040Z,97260.13
2023-07-24T19:13:50.213Z,97266.44
2023-07-24T19:15:53.361Z,97270.09
2023-07-24T19:17:56.545Z,97279.09
2023-07-24T19:19:59.698Z,97271.31
2023-07-24T19:22:04.674Z,97271.88
2023-07-24T19:24:08.734Z,97273.91
2023-07-24T19:26:14.283Z,97282.88
2023-07-24T19:28:17.464Z,97276.09
2023-07-24T19:30:19.671Z,97273.00
2023-07-24T19:32:25.481Z,97273.00
2023-07-24T19:34:28.944Z,97275.03
2023-07-24T19:36:32.047Z,97270.72
2023-07-24T19:38:36.777Z,97281.72
2023-07-24T19:40:40.031Z,97271.66
2023-07-24T19:42:43.208Z,97266.94
2023-07-24T19:44:46.352Z,97275.44
2023-07-24T19:46:48.629Z,97262.56
2023-07-24T19:48:51.775Z,97271.69
2023-07-24T19:50:56.422Z,97259.63
2023-07-24T19:52:59.641Z,97259.00
2023-07-24T19:55:04.095Z,97248.59
2023-07-24T19:57:08.172Z,97241.81
2023-07-24T19:59:11.524Z,97245.41
2023-07-24T20:01:13.877Z,97243.03
2023-07-24T20:03:17.464Z,97247.25
2023-07-24T20:05:21.445Z,97245.97
2023-07-24T20:07:24.824Z,97248.97
2023-07-24T20:09:28.689Z,97239.59
2023-07-24T20:11:33.347Z,97251.38
2023-07-24T20:13:38.955Z,97254.41
2023-07-24T20:15:43.138Z,97259.25
2023-07-24T20:17:46.375Z,97261.81
2023-07-24T20:19:49.594Z,97267.66
2023-07-24T20:21:52.881Z,97265.94
2023-07-24T20:23:56.772Z,97270.13
2023-07-24T20:26:00.029Z,97274.50
2023-07-24T20:28:04.640Z,97276.81
2023-07-24T20:30:09.345Z,97271.63
2023-07-24T20:32:11.718Z,97277.19
2023-07-24T20:34:14.962Z,97264.69
2023-07-24T20:36:18.135Z,97269.31
2023-07-24T20:38:25.437Z,97272.63
2023-07-24T20:40:28.699Z,97281.53
2023-07-24T20:42:32.344Z,97273.78
2023-07-24T20:44:36.881Z,97276.59
2023-07-24T20:46:40.033Z,97277.78
2023-07-24T20:48:43.374Z,97284.28
2023-07-24T20:50:47.040Z,97287.91
2023-07-24T20:52:50.322Z,97290.38
2023-07-24T20:54:53.516Z,97290.19
2023-07-24T20:56:56.611Z,97297.78
2023-07-24T20:58:59.749Z,97301.91
2023-07-24T21:01:03.316Z,97295.75
2023-07-24T21:03:06.531Z,97296.13
2023-07-24T21:05:10.546Z,97300.78
2023-07-24T21:07:13.743Z,97298.03
2023-07-24T21:09:18.103Z,97292.28
2023-07-24T21:11:21.300Z,97289.31
2023-07-24T21:13:24.590Z,97290.53
2023-07-24T21:15:27.692Z,97295.34
2023-07-24T21:17:32.169Z,97292.06
2023-07-24T21:19:35.314Z,97288.78
2023-07-24T21:21:38.388Z,97291.78
2023-07-24T21:23:41.559Z,97293.91
2023-07-24T21:25:54.020Z,97287.19
2023-07-24T21:27:57.118Z,97289.16
2023-07-24T21:30:00.303Z,97295.81
2023-07-24T21:32:03.400Z,97290.88
2023-07-24T21:34:06.932Z,97296.53
2023-07-24T21:36:10.112Z,97300.50
2023-07-24T21:38:14.240Z,97298.34
2023-07-24T21:40:18.250Z,97303.00
2023-07-24T21:42:21.402Z,97299.72
2023-07-24T21:44:24.627Z,97308.66
2023-07-24T21:46:27.697Z,97312.44
2023-07-24T21:48:31.027Z,97305.53
2023-07-24T21:50:35.558Z,97318.25
2023-07-24T21:52:38.727Z,97318.13
2023-07-24T21:54:41.918Z,97314.53
2023-07-24T21:56:45.049Z,97320.53
2023-07-24T21:58:49.259Z,97318.75
2023-07-24T22:00:52.498Z,97311.88
2023-07-24T22:02:55.860Z,97312.38
2023-07-24T22:04:59.178Z,97314.00
2023-07-24T22:07:03.751Z,97312.03
2023-07-24T22:09:06.983Z,97309.88
2023-07-24T22:11:13.839Z,97307.22
2023-07-24T22:13:16.916Z,97315.31
2023-07-24T22:15:20.095Z,97309.41
2023-07-24T22:17:29.186Z,97309.06
2023-07-24T22:19:32.449Z,97306.94
2023-07-24T22:21:35.555Z,97310.28
2023-07-24T22:23:40.073Z,97306.84
2023-07-24T22:25:44.357Z,97317.13
2023-07-24T22:27:47.524Z,97301.63
2023-07-24T22:29:50.595Z,97310.19
2023-07-24T22:31:53.741Z,97308.19
2023-07-24T22:33:56.930Z,97305.53
2023-07-24T22:36:00.256Z,97301.91
2023-07-24T22:38:03.507Z,97297.44
2023-07-24T22:40:09.655Z,97295.66
2023-07-24T22:42:12.948Z,97286.88
2023-07-24T22:44:16.071Z,97282.63
2023-07-24T22:46:19.344Z,97286.88
2023-07-24T22:48:22.610Z,97289.19
2023-07-24T22:50:24.715Z,97296.28
2023-07-24T22:52:27.894Z,97299.63
2023-07-24T22:54:31.017Z,97295.03
2023-07-24T22:56:35.515Z,97292.03
2023-07-24T22:59:10.806Z,97301.44
2023-07-24T23:01:13.931Z,97280.50
2023-07-24T23:03:17.080Z,97280.69
2023-07-24T23:05:20.265Z,97288.75
2023-07-24T23:07:23.394Z,97278.38
2023-07-24T23:09:26.504Z,97286.28
2023-07-24T23:11:28.763Z,97286.47
2023-07-24T23:13:33.460Z,97281.53
2023-07-24T23:15:36.491Z,97283.53
2023-07-24T23:17:39.746Z,97285.69
2023-07-24T23:19:42.886Z,97283.22
2023-07-24T23:21:45.897Z,97281.72
2023-07-24T23:23:47.983Z,97285.50
2023-07-24T23:25:51.045Z,97287.66
2023-07-24T23:27:54.155Z,97276.63
2023-07-24T23:29:58.608Z,97273.31
2023-07-24T23:32:01.769Z,97275.50
2023-07-24T23:34:03.883Z,97266.75
2023-07-24T23:36:08.332Z,97275.66
2023-07-24T23:38:11.592Z,97275.00
2023-07-24T23:40:14.836Z,97270.72
2023-07-24T23:42:16.908Z,97262.16
2023-07-24T23:44:19.983Z,97252.41
2023-07-24T23:46:23.473Z,97257.53
2023-07-24T23:48:26.788Z,97254.25
2023-07-24T23:50:29.889Z,97249.94
2023-07-24T23:52:32.940Z,97255.22
2023-07-24T23:54:36.013Z,97254.25
2023-07-24T23:56:39.392Z,97256.03
2023-07-24T23:58:42.721Z,97251.78
